createdAt,value
2022-08-28T06:51:38.235Z,0
2022-08-28T07:01:44.217Z,0
2022-08-28T07:21:44.875Z,0
2022-08-28T07:31:45.328Z,0
2022-08-28T07:41:45.683Z,0
2022-08-28T07:51:46.875Z,0
2022-08-28T08:01:47.201Z,0
2022-08-28T08:11:47.870Z,0
2022-08-28T08:21:51.699Z,0
2022-08-28T08:31:49.593Z,0
2022-08-28T09:11:54.571Z,0
2022-08-28T09:21:52.802Z,0
2022-08-28T09:31:53.114Z,0
2022-08-28T09:41:53.472Z,21
2022-08-28T09:51:53.934Z,48
2022-08-28T10:01:54.365Z,66
2022-08-28T10:11:54.621Z,72
2022-08-28T10:52:04.563Z,86
2022-08-28T11:51:59.706Z,83
2022-08-28T12:02:00.447Z,84
2022-08-28T12:12:00.626Z,83
2022-08-28T12:22:00.796Z,85
2022-08-28T12:32:01.702Z,81
2022-08-28T12:42:02.582Z,79
2022-08-28T12:52:02.796Z,79
2022-08-28T13:02:03.220Z,76
2022-08-28T13:12:04.018Z,78
2022-08-28T13:32:04.551Z,74
2022-08-28T13:52:05.456Z,73
2022-08-28T14:02:06.120Z,75
2022-08-28T14:12:06.129Z,71
2022-08-28T14:22:06.910Z,73
2022-08-28T14:32:07.167Z,73
2022-08-28T14:42:11.840Z,74
2022-08-28T14:52:08.966Z,72
2022-08-28T15:02:16.872Z,73
2022-08-28T15:12:10.217Z,74
2022-08-28T15:22:18.049Z,73
2022-08-28T15:32:11.397Z,73
2022-08-28T15:42:19.130Z,71
2022-08-28T15:52:12.687Z,71
2022-08-28T16:02:13.235Z,71
2022-08-28T16:12:13.764Z,72
2022-08-28T16:22:14.749Z,71
2022-08-28T16:32:14.960Z,72
2022-08-28T16:42:15.323Z,73
2022-08-28T17:02:16.627Z,73
2022-08-28T17:12:17.046Z,74
2022-08-28T17:22:17.834Z,73
2022-08-28T17:32:18.619Z,74
2022-08-28T17:42:19.336Z,74
2022-08-28T17:52:20.342Z,75
2022-08-28T18:22:25.420Z,79
2022-08-28T18:32:23.209Z,79
2022-08-28T18:42:23.373Z,80
2022-08-28T18:52:23.552Z,81
2022-08-28T19:02:23.805Z,82
2022-08-28T19:12:31.481Z,83
2022-08-28T19:22:25.461Z,84
2022-08-28T19:32:27.197Z,86
2022-08-28T19:42:26.402Z,87
2022-08-28T20:02:27.651Z,93
2022-08-28T20:22:28.483Z,97
2022-08-28T20:32:29.182Z,98
2022-08-28T21:02:30.454Z,96
2022-08-28T21:22:31.903Z,92
2022-08-28T22:22:35.274Z,0
2022-08-28T22:32:36.220Z,0
2022-08-28T22:42:36.493Z,0
2022-08-28T22:52:37.353Z,0
2022-08-28T23:02:37.903Z,0
2022-08-28T23:12:38.295Z,0
2022-08-28T23:22:38.982Z,0
2022-08-28T23:32:39.255Z,0
2022-08-28T23:42:40.050Z,0
2022-08-28T23:52:40.138Z,0
